createdAt,value
2022-10-09T00:01:31.221Z,100909.60
2022-10-09T00:03:59.701Z,100909.40
2022-10-09T00:06:33.823Z,100911.00
2022-10-09T00:09:02.639Z,100910.80
2022-10-09T00:11:33.111Z,100913.80
2022-10-09T00:14:01.654Z,100918.60
2022-10-09T00:16:29.755Z,100917.40
2022-10-09T00:18:58.388Z,100920.20
2022-10-09T00:21:32.823Z,100923.00
2022-10-09T00:24:03.048Z,100928.20
2022-10-09T00:26:31.711Z,100923.40
2022-10-09T00:29:00.016Z,100926.00
2022-10-09T00:31:28.404Z,100928.80
2022-10-09T00:33:56.647Z,100925.40
2022-10-09T00:36:26.419Z,100922.00
2022-10-09T00:38:55.513Z,100924.40
2022-10-09T00:41:30.402Z,100931.60
2022-10-09T00:44:03.841Z,100927.20
2022-10-09T00:46:50.586Z,100921.20
2022-10-09T00:49:26.844Z,100923.60
2022-10-09T00:51:58.000Z,100926.60
2022-10-09T00:54:31.766Z,100929.80
2022-10-09T00:57:00.241Z,100937.20
2022-10-09T00:59:29.156Z,100937.00
2022-10-09T01:01:56.969Z,100937.00
2022-10-09T01:04:24.901Z,100937.40
2022-10-09T01:07:17.477Z,100936.20
2022-10-09T01:10:23.630Z,100942.40
2022-10-09T01:13:14.550Z,100943.00
2022-10-09T01:16:00.521Z,100947.80
2022-10-09T01:19:06.748Z,100951.60
2022-10-09T01:21:55.992Z,100952.20
2022-10-09T01:24:31.012Z,100953.20
2022-10-09T01:27:11.979Z,100959.00
2022-10-09T01:29:47.599Z,100958.20
2022-10-09T01:32:21.840Z,100963.80
2022-10-09T01:34:51.978Z,100967.80
2022-10-09T01:37:22.260Z,100965.20
2022-10-09T01:39:50.616Z,100972.20
2022-10-09T01:42:22.299Z,100974.20
2022-10-09T01:44:49.962Z,100971.20
2022-10-09T01:47:20.465Z,100973.40
2022-10-09T01:49:54.317Z,100974.00
2022-10-09T01:52:43.851Z,100973.60
2022-10-09T01:55:47.037Z,100976.80
2022-10-09T01:58:28.405Z,100983.00
2022-10-09T02:01:24.499Z,100983.80
2022-10-09T02:03:54.075Z,100988.40
2022-10-09T02:06:22.457Z,100990.80
2022-10-09T02:08:52.134Z,100998.00
2022-10-09T02:11:25.765Z,100999.40
2022-10-09T02:13:55.537Z,100998.60
2022-10-09T02:16:39.107Z,101001.80
2022-10-09T02:19:19.777Z,101005.40
2022-10-09T02:21:57.444Z,101006.00
2022-10-09T02:24:25.802Z,101009.20
2022-10-09T02:26:54.848Z,101006.60
2022-10-09T02:29:22.986Z,101007.40
2022-10-09T02:31:51.346Z,101009.40
2022-10-09T02:34:20.672Z,101016.20
2022-10-09T02:36:49.769Z,101024.00
2022-10-09T02:39:17.725Z,101027.40
2022-10-09T02:41:45.434Z,101033.40
2022-10-09T02:44:13.263Z,101027.40
2022-10-09T02:46:41.122Z,101027.60
2022-10-09T02:49:09.036Z,101031.40
2022-10-09T02:51:36.839Z,101034.20
2022-10-09T02:54:06.466Z,101036.20
2022-10-09T02:56:38.651Z,101038.20
2022-10-09T02:59:07.500Z,101038.20
2022-10-09T03:01:35.534Z,101037.80
2022-10-09T03:04:04.809Z,101044.40
2022-10-09T03:06:33.501Z,101048.40
2022-10-09T03:09:02.765Z,101051.60
2022-10-09T03:12:41.513Z,101062.40
2022-10-09T03:15:11.607Z,101058.00
2022-10-09T03:17:40.070Z,101068.00
2022-10-09T03:20:08.882Z,101069.60
2022-10-09T03:22:36.508Z,101069.40
2022-10-09T03:25:04.944Z,101074.20
2022-10-09T03:27:32.819Z,101077.20
2022-10-09T03:30:00.529Z,101081.20
2022-10-09T03:32:28.809Z,101082.60
2022-10-09T03:34:56.551Z,101080.60
2022-10-09T03:37:25.198Z,101085.40
2022-10-09T03:39:52.954Z,101082.60
2022-10-09T03:42:20.866Z,101077.80
2022-10-09T03:44:48.783Z,101078.40
2022-10-09T03:47:16.885Z,101079.60
2022-10-09T03:49:44.609Z,101076.20
2022-10-09T03:52:12.272Z,101079.60
2022-10-09T03:54:39.989Z,101082.80
2022-10-09T03:57:07.775Z,101088.00
2022-10-09T03:59:35.460Z,101091.40
2022-10-09T04:02:03.267Z,101098.20
2022-10-09T04:04:31.059Z,101101.20
2022-10-09T04:06:58.845Z,101106.40
2022-10-09T04:09:26.605Z,101106.80
2022-10-09T04:11:54.398Z,101107.60
2022-10-09T04:14:22.166Z,101115.60
2022-10-09T04:16:49.849Z,101112.40
2022-10-09T04:19:18.520Z,101118.80
2022-10-09T04:21:46.448Z,101118.00
2022-10-09T04:24:14.275Z,101121.40
2022-10-09T04:26:42.078Z,101126.00
2022-10-09T04:29:11.596Z,101121.80
2022-10-09T04:31:39.464Z,101122.60
2022-10-09T04:34:07.661Z,101125.80
2022-10-09T04:36:35.389Z,101131.80
2022-10-09T04:39:03.517Z,101128.60
2022-10-09T04:41:35.933Z,101132.80
2022-10-09T04:44:06.157Z,101138.80
2022-10-09T04:46:33.869Z,101144.40
2022-10-09T04:49:01.651Z,101144.80
2022-10-09T04:51:29.759Z,101140.60
2022-10-09T04:54:00.559Z,101145.60
2022-10-09T04:56:28.627Z,101151.00
2022-10-09T04:58:56.390Z,101155.20
2022-10-09T05:01:27.817Z,101159.20
2022-10-09T05:03:56.533Z,101167.60
2022-10-09T05:06:25.405Z,101169.20
2022-10-09T05:08:54.875Z,101165.80
2022-10-09T05:11:25.827Z,101173.40
2022-10-09T05:13:56.463Z,101173.40
2022-10-09T05:16:28.159Z,101174.20
2022-10-09T05:18:58.266Z,101183.00
2022-10-09T05:21:28.158Z,101184.00
2022-10-09T05:23:56.863Z,101184.40
2022-10-09T05:26:27.704Z,101195.60
2022-10-09T05:28:55.508Z,101204.60
2022-10-09T05:31:27.118Z,101201.60
2022-10-09T05:33:59.291Z,101203.40
2022-10-09T05:36:27.203Z,101204.40
2022-10-09T05:38:56.461Z,101209.20
2022-10-09T05:41:24.235Z,101213.60
2022-10-09T05:43:51.905Z,101220.40
2022-10-09T05:46:24.835Z,101224.00
2022-10-09T05:49:00.182Z,101229.80
2022-10-09T05:51:35.387Z,101229.80
2022-10-09T05:54:04.738Z,101232.20
2022-10-09T05:56:38.752Z,101240.00
2022-10-09T05:59:09.466Z,101241.60
2022-10-09T06:01:43.637Z,101245.20
2022-10-09T06:04:18.723Z,101250.80
2022-10-09T06:06:48.535Z,101256.20
2022-10-09T06:09:22.156Z,101256.00
2022-10-09T06:11:53.429Z,101264.80
2022-10-09T06:14:22.620Z,101263.80
2022-10-09T06:16:50.719Z,101265.40
2022-10-09T06:19:20.440Z,101271.40
2022-10-09T06:21:49.382Z,101280.40
2022-10-09T06:24:28.981Z,101285.80
2022-10-09T06:26:58.262Z,101284.40
2022-10-09T06:29:26.382Z,101287.20
2022-10-09T06:31:54.165Z,101284.80
2022-10-09T06:34:23.053Z,101287.40
2022-10-09T06:36:50.761Z,101293.40
2022-10-09T06:39:18.667Z,101301.60
2022-10-09T06:41:46.461Z,101300.20
2022-10-09T06:44:31.157Z,101308.00
2022-10-09T06:46:58.886Z,101320.20
2022-10-09T06:49:26.917Z,101321.80
2022-10-09T06:51:54.705Z,101326.00
2022-10-09T06:54:22.959Z,101327.00
2022-10-09T06:56:50.729Z,101329.80
2022-10-09T06:59:19.288Z,101331.60
2022-10-09T07:01:47.030Z,101338.60
2022-10-09T07:04:18.206Z,101347.20
2022-10-09T07:06:49.454Z,101348.00
2022-10-09T07:09:17.249Z,101350.80
2022-10-09T07:11:49.075Z,101357.60
2022-10-09T07:14:17.427Z,101356.80
2022-10-09T07:16:48.338Z,101360.80
2022-10-09T07:19:17.712Z,101364.80
2022-10-09T07:21:48.347Z,101371.80
2022-10-09T07:24:17.552Z,101372.00
2022-10-09T07:26:47.187Z,101371.60
2022-10-09T07:29:18.425Z,101376.40
2022-10-09T07:31:46.210Z,101373.00
2022-10-09T07:34:14.177Z,101378.20
2022-10-09T07:36:42.193Z,101381.00
2022-10-09T07:39:09.934Z,101391.20
2022-10-09T07:41:37.753Z,101385.80
2022-10-09T07:44:05.448Z,101388.20
2022-10-09T07:46:34.141Z,101385.20
2022-10-09T07:49:03.659Z,101388.80
2022-10-09T07:51:32.715Z,101387.80
2022-10-09T07:54:02.752Z,101391.60
2022-10-09T07:56:38.063Z,101394.80
2022-10-09T07:59:11.345Z,101397.20
2022-10-09T08:01:39.699Z,101400.20
2022-10-09T08:04:08.736Z,101405.20
2022-10-09T08:06:36.892Z,101409.40
2022-10-09T08:09:07.289Z,101416.20
2022-10-09T08:11:36.279Z,101418.80
2022-10-09T08:14:04.507Z,101418.00
2022-10-09T08:16:32.663Z,101425.20
2022-10-09T08:19:02.430Z,101425.40
2022-10-09T08:21:35.998Z,101428.60
2022-10-09T08:24:04.887Z,101432.40
2022-10-09T08:26:33.854Z,101434.00
2022-10-09T08:29:04.531Z,101439.00
2022-10-09T08:31:33.192Z,101439.60
2022-10-09T08:34:03.430Z,101445.20
